Springfield, New Jersey
Current Conditions -  °F | °C
As of 9:55 AM on Wednesday 22 Oct 2014 (Local Time) from KLDJ Reporting Station
Moderate Rain Moderate Rain  
Wind Chill: 15°   Ceiling: 1400
Heat Index: 15°   Visibility: 7mi
Dew Point: 13°   Wind: 9mph
Humidity: 90%   Direction: 40°NE
Pressure: 29.94"   Gusts: NA
Location:  40.71°N, 74.31°W
Report Text: KLDJ 221355Z AUTO 04008KT 7SM RA BKN014 OVC020 15/13 A2994 RMK AO2 LTG DSNT S P0003 T01450128
Loading
Personal Weather Stations






























Interactive Weather Map
Tropical Storm Tracking
New forecast layout! Learn more

10-Day Weather Forecast

Advertisements
Track Severe Weather on mobile